NUA0558 DNMM-DNAA
Flight info
| Callsign | NUA0558 |
|---|---|
| Flight time | 0h 54m |
| Altitude | 31000 |
| Route | IBA1Q IBA UR778 KELIG UW951 MESES MESES1N |
| Aircraft | A320/M-SDE3FGHIRWY/LB1 |
Departure
| Time | 2026-05-07 13:45 |
|---|---|
| Airport | Murtala Muhammed International Airport (DNMM) |
Arrival
| Time | 2026-05-07 14:39 |
|---|---|
| Airport | Nnamdi Azikiwe International Airport (DNAA) |
| Time | Latitude | Longitude | Altitude | Speed | Heading |
|---|---|---|---|---|---|
| 2026-05-07 13:25 | 6.58451 | 3.33196 | 125 ft | 0 kts | 73° |
| 2026-05-07 13:36 | 6.58451 | 3.33195 | 125 ft | 1 kts | 73° |
| 2026-05-07 13:36 | 6.58447 | 3.33181 | 124 ft | 2 kts | 73° |
| 2026-05-07 13:36 | 6.58443 | 3.33167 | 123 ft | 2 kts | 73° |
| 2026-05-07 13:37 | 6.58440 | 3.33158 | 123 ft | 2 kts | 65° |
| 2026-05-07 13:37 | 6.58430 | 3.33147 | 122 ft | 2 kts | 22° |
| 2026-05-07 13:37 | 6.58421 | 3.33145 | 121 ft | 1 kts | 0° |
| 2026-05-07 13:37 | 6.58413 | 3.33145 | 121 ft | 0 kts | 358° |
| 2026-05-07 13:39 | 6.58414 | 3.33145 | 121 ft | 0 kts | 358° |
| 2026-05-07 13:39 | 6.58426 | 3.33145 | 122 ft | 2 kts | 359° |
| 2026-05-07 13:40 | 6.58457 | 3.33145 | 123 ft | 6 kts | 360° |
| 2026-05-07 13:40 | 6.58505 | 3.33145 | 125 ft | 7 kts | 360° |
| 2026-05-07 13:40 | 6.58554 | 3.33134 | 127 ft | 7 kts | 315° |
| 2026-05-07 13:40 | 6.58565 | 3.33063 | 126 ft | 11 kts | 286° |
| 2026-05-07 13:41 | 6.58627 | 3.33041 | 129 ft | 8 kts | 359° |
| 2026-05-07 13:41 | 6.58687 | 3.33040 | 132 ft | 10 kts | 360° |
| 2026-05-07 13:41 | 6.58779 | 3.33040 | 132 ft | 15 kts | 359° |
| 2026-05-07 13:41 | 6.58894 | 3.33039 | 132 ft | 17 kts | 360° |
| 2026-05-07 13:42 | 6.59021 | 3.33038 | 132 ft | 18 kts | 359° |
| 2026-05-07 13:42 | 6.59147 | 3.33036 | 133 ft | 17 kts | 359° |
| 2026-05-07 13:42 | 6.59268 | 3.33036 | 136 ft | 16 kts | 359° |
| 2026-05-07 13:42 | 6.59391 | 3.33035 | 136 ft | 18 kts | 359° |
| 2026-05-07 13:43 | 6.59520 | 3.33034 | 138 ft | 18 kts | 360° |
| 2026-05-07 13:43 | 6.59630 | 3.33033 | 140 ft | 10 kts | 354° |
| 2026-05-07 13:43 | 6.59662 | 3.32984 | 142 ft | 9 kts | 268° |
| 2026-05-07 13:43 | 6.59661 | 3.32921 | 142 ft | 9 kts | 268° |
| 2026-05-07 13:44 | 6.59621 | 3.32884 | 143 ft | 9 kts | 187° |
| 2026-05-07 13:44 | 6.59473 | 3.32885 | 140 ft | 48 kts | 179° |
| 2026-05-07 13:44 | 6.58899 | 3.32893 | 128 ft | 113 kts | 179° |
| 2026-05-07 13:44 | 6.57932 | 3.32908 | 116 ft | 164 kts | 179° |
| 2026-05-07 13:45 | 6.56787 | 3.32932 | 698 ft | 159 kts | 178° |
| 2026-05-07 13:45 | 6.55685 | 3.32979 | 1254 ft | 162 kts | 178° |
| 2026-05-07 13:45 | 6.54561 | 3.33013 | 1749 ft | 160 kts | 185° |
| 2026-05-07 13:45 | 6.53566 | 3.32583 | 2084 ft | 161 kts | 230° |
| 2026-05-07 13:46 | 6.53148 | 3.31546 | 2454 ft | 164 kts | 258° |
| 2026-05-07 13:46 | 6.52957 | 3.30425 | 2848 ft | 165 kts | 258° |
| 2026-05-07 13:46 | 6.52745 | 3.29301 | 3248 ft | 166 kts | 258° |
| 2026-05-07 13:46 | 6.52511 | 3.28134 | 3569 ft | 175 kts | 257° |
| 2026-05-07 13:47 | 6.52252 | 3.26882 | 3837 ft | 190 kts | 258° |
| 2026-05-07 13:47 | 6.52037 | 3.25537 | 4106 ft | 205 kts | 271° |
| 2026-05-07 13:47 | 6.52486 | 3.24133 | 4370 ft | 219 kts | 307° |
| 2026-05-07 13:47 | 6.53751 | 3.23234 | 4550 ft | 240 kts | 347° |
| 2026-05-07 13:48 | 6.55446 | 3.23328 | 4875 ft | 256 kts | 22° |
| 2026-05-07 13:48 | 6.57073 | 3.24212 | 5312 ft | 270 kts | 33° |
| 2026-05-07 13:48 | 6.58645 | 3.25256 | 5995 ft | 274 kts | 33° |
| 2026-05-07 13:48 | 6.60241 | 3.26303 | 6792 ft | 274 kts | 33° |
| 2026-05-07 13:49 | 6.61860 | 3.27324 | 7577 ft | 274 kts | 33° |
| 2026-05-07 13:49 | 6.63481 | 3.28320 | 8337 ft | 274 kts | 34° |
| 2026-05-07 13:49 | 6.65103 | 3.29304 | 9098 ft | 273 kts | 34° |
| 2026-05-07 13:49 | 6.66714 | 3.30276 | 9813 ft | 274 kts | 34° |
| 2026-05-07 13:50 | 6.68382 | 3.31285 | 10392 ft | 281 kts | 34° |
| 2026-05-07 13:50 | 6.70051 | 3.32382 | 10689 ft | 296 kts | 39° |
| 2026-05-07 13:50 | 6.71716 | 3.33709 | 10968 ft | 311 kts | 44° |
| 2026-05-07 13:50 | 6.73317 | 3.35227 | 11341 ft | 322 kts | 47° |
| 2026-05-07 13:51 | 6.74943 | 3.36829 | 11889 ft | 327 kts | 47° |
| 2026-05-07 13:51 | 6.76573 | 3.38441 | 12493 ft | 330 kts | 47° |
| 2026-05-07 13:51 | 6.78193 | 3.40045 | 13052 ft | 333 kts | 47° |
| 2026-05-07 13:51 | 6.79869 | 3.41704 | 13589 ft | 337 kts | 47° |
| 2026-05-07 13:52 | 6.81533 | 3.43352 | 14097 ft | 341 kts | 47° |
| 2026-05-07 13:52 | 6.83232 | 3.45033 | 14590 ft | 345 kts | 46° |
| 2026-05-07 13:52 | 6.84974 | 3.46759 | 15060 ft | 349 kts | 46° |
| 2026-05-07 13:52 | 6.86698 | 3.48464 | 15485 ft | 353 kts | 46° |
| 2026-05-07 13:53 | 6.88471 | 3.50218 | 15917 ft | 358 kts | 46° |
| 2026-05-07 13:53 | 6.90247 | 3.51976 | 16332 ft | 361 kts | 46° |
| 2026-05-07 13:53 | 6.92058 | 3.53767 | 16744 ft | 365 kts | 46° |
| 2026-05-07 13:53 | 6.93875 | 3.55566 | 17143 ft | 369 kts | 46° |
| 2026-05-07 13:54 | 6.95707 | 3.57378 | 17539 ft | 372 kts | 46° |
| 2026-05-07 13:54 | 6.97551 | 3.59205 | 17942 ft | 374 kts | 46° |
| 2026-05-07 13:54 | 6.99417 | 3.61052 | 18355 ft | 376 kts | 46° |
| 2026-05-07 13:54 | 7.01300 | 3.62917 | 18759 ft | 378 kts | 46° |
| 2026-05-07 13:55 | 7.03165 | 3.64763 | 19143 ft | 380 kts | 46° |
| 2026-05-07 13:55 | 7.05075 | 3.66655 | 19533 ft | 382 kts | 46° |
| 2026-05-07 13:55 | 7.06958 | 3.68520 | 19919 ft | 383 kts | 46° |
| 2026-05-07 13:55 | 7.08852 | 3.70398 | 20297 ft | 385 kts | 46° |
| 2026-05-07 13:56 | 7.10788 | 3.72317 | 20652 ft | 387 kts | 46° |
| 2026-05-07 13:56 | 7.12700 | 3.74211 | 21004 ft | 389 kts | 46° |
| 2026-05-07 13:56 | 7.14641 | 3.76135 | 21364 ft | 390 kts | 46° |
| 2026-05-07 13:56 | 7.16566 | 3.78044 | 21703 ft | 392 kts | 46° |
| 2026-05-07 13:57 | 7.18539 | 3.80001 | 22027 ft | 394 kts | 46° |
| 2026-05-07 13:57 | 7.20497 | 3.81941 | 22359 ft | 396 kts | 46° |
| 2026-05-07 13:57 | 7.22471 | 3.83899 | 22706 ft | 398 kts | 46° |
| 2026-05-07 13:57 | 7.24428 | 3.85841 | 23029 ft | 400 kts | 46° |
| 2026-05-07 13:58 | 7.26425 | 3.87823 | 23346 ft | 402 kts | 46° |
| 2026-05-07 13:58 | 7.28427 | 3.89812 | 23668 ft | 403 kts | 46° |
| 2026-05-07 13:58 | 7.30424 | 3.91795 | 23977 ft | 405 kts | 46° |
| 2026-05-07 13:58 | 7.32449 | 3.93805 | 24290 ft | 407 kts | 46° |
| 2026-05-07 13:59 | 7.34472 | 3.95813 | 24616 ft | 408 kts | 46° |
| 2026-05-07 13:59 | 7.36430 | 3.97871 | 24900 ft | 410 kts | 49° |
| 2026-05-07 13:59 | 7.38272 | 4.00071 | 25187 ft | 411 kts | 53° |
| 2026-05-07 13:59 | 7.40009 | 4.02364 | 25459 ft | 413 kts | 53° |
| 2026-05-07 14:00 | 7.41814 | 4.04667 | 25746 ft | 415 kts | 51° |
| 2026-05-07 14:00 | 7.43686 | 4.06882 | 26015 ft | 417 kts | 50° |
| 2026-05-07 14:00 | 7.45581 | 4.09095 | 26305 ft | 419 kts | 50° |
| 2026-05-07 14:00 | 7.47480 | 4.11308 | 26560 ft | 421 kts | 50° |
| 2026-05-07 14:01 | 7.49419 | 4.13564 | 26815 ft | 423 kts | 50° |
| 2026-05-07 14:01 | 7.51340 | 4.15796 | 27076 ft | 424 kts | 50° |
| 2026-05-07 14:01 | 7.53290 | 4.18064 | 27352 ft | 426 kts | 50° |
| 2026-05-07 14:01 | 7.55220 | 4.20308 | 27611 ft | 427 kts | 50° |
| 2026-05-07 14:02 | 7.57171 | 4.22578 | 27881 ft | 428 kts | 50° |
| 2026-05-07 14:02 | 7.59112 | 4.24836 | 28126 ft | 430 kts | 50° |
| 2026-05-07 14:02 | 7.61067 | 4.27111 | 28361 ft | 431 kts | 50° |
| 2026-05-07 14:02 | 7.63058 | 4.29430 | 28586 ft | 433 kts | 50° |
| 2026-05-07 14:03 | 7.65017 | 4.31712 | 28809 ft | 435 kts | 50° |
| 2026-05-07 14:03 | 7.67000 | 4.34023 | 29019 ft | 437 kts | 50° |
| 2026-05-07 14:03 | 7.69009 | 4.36361 | 29241 ft | 439 kts | 50° |
| 2026-05-07 14:03 | 7.70991 | 4.38685 | 29448 ft | 441 kts | 51° |
| 2026-05-07 14:04 | 7.72891 | 4.41103 | 29648 ft | 442 kts | 53° |
| 2026-05-07 14:04 | 7.74687 | 4.43655 | 29864 ft | 444 kts | 56° |
| 2026-05-07 14:04 | 7.76323 | 4.46269 | 30063 ft | 445 kts | 59° |
| 2026-05-07 14:04 | 7.77868 | 4.48989 | 30238 ft | 448 kts | 60° |
| 2026-05-07 14:05 | 7.79411 | 4.51755 | 30431 ft | 449 kts | 61° |
| 2026-05-07 14:05 | 7.80931 | 4.54489 | 30602 ft | 451 kts | 60° |
| 2026-05-07 14:05 | 7.82476 | 4.57268 | 30771 ft | 453 kts | 60° |
| 2026-05-07 14:05 | 7.84011 | 4.60027 | 30888 ft | 454 kts | 60° |
| 2026-05-07 14:06 | 7.85554 | 4.62797 | 30895 ft | 454 kts | 60° |
| 2026-05-07 14:06 | 7.88652 | 4.68360 | 30906 ft | 454 kts | 60° |
| 2026-05-07 14:07 | 7.91740 | 4.73903 | 30909 ft | 454 kts | 60° |
| 2026-05-07 14:07 | 7.94821 | 4.79435 | 30911 ft | 454 kts | 60° |
| 2026-05-07 14:08 | 7.97924 | 4.85009 | 30913 ft | 455 kts | 60° |
| 2026-05-07 14:08 | 8.01012 | 4.90559 | 30913 ft | 456 kts | 60° |
| 2026-05-07 14:09 | 8.04129 | 4.96163 | 30917 ft | 456 kts | 60° |
| 2026-05-07 14:09 | 8.07227 | 5.01738 | 30913 ft | 456 kts | 60° |
| 2026-05-07 14:10 | 8.10309 | 5.07286 | 30904 ft | 455 kts | 60° |
| 2026-05-07 14:10 | 8.13415 | 5.12876 | 30897 ft | 455 kts | 60° |
| 2026-05-07 14:11 | 8.16507 | 5.18433 | 30886 ft | 454 kts | 60° |
| 2026-05-07 14:11 | 8.19598 | 5.23988 | 30878 ft | 455 kts | 60° |
| 2026-05-07 14:12 | 8.22694 | 5.29556 | 30873 ft | 454 kts | 60° |
| 2026-05-07 14:12 | 8.25777 | 5.35106 | 30869 ft | 454 kts | 60° |
| 2026-05-07 14:13 | 8.28865 | 5.40669 | 30866 ft | 453 kts | 60° |
| 2026-05-07 14:13 | 8.31946 | 5.46220 | 30867 ft | 453 kts | 60° |
| 2026-05-07 14:14 | 8.35025 | 5.51768 | 30860 ft | 454 kts | 60° |
| 2026-05-07 14:14 | 8.38109 | 5.57323 | 30857 ft | 453 kts | 60° |
| 2026-05-07 14:15 | 8.41184 | 5.62868 | 30854 ft | 453 kts | 60° |
| 2026-05-07 14:15 | 8.44255 | 5.68412 | 30856 ft | 453 kts | 60° |
| 2026-05-07 14:16 | 8.47312 | 5.73935 | 30841 ft | 452 kts | 60° |
| 2026-05-07 14:16 | 8.50394 | 5.79508 | 30832 ft | 452 kts | 60° |
| 2026-05-07 14:17 | 8.53453 | 5.85040 | 30834 ft | 453 kts | 60° |
| 2026-05-07 14:17 | 8.56521 | 5.90591 | 30827 ft | 453 kts | 60° |
| 2026-05-07 14:18 | 8.59598 | 5.96174 | 30817 ft | 453 kts | 60° |
| 2026-05-07 14:18 | 8.62642 | 6.01707 | 30815 ft | 452 kts | 60° |
| 2026-05-07 14:19 | 8.65707 | 6.07282 | 30809 ft | 452 kts | 60° |
| 2026-05-07 14:19 | 8.68763 | 6.12842 | 30185 ft | 456 kts | 60° |
| 2026-05-07 14:19 | 8.70286 | 6.15615 | 29306 ft | 457 kts | 60° |
| 2026-05-07 14:20 | 8.71822 | 6.18410 | 28438 ft | 457 kts | 60° |
| 2026-05-07 14:20 | 8.73369 | 6.21229 | 27624 ft | 455 kts | 60° |
| 2026-05-07 14:20 | 8.74886 | 6.23995 | 27058 ft | 447 kts | 61° |
| 2026-05-07 14:20 | 8.76391 | 6.26731 | 26516 ft | 439 kts | 60° |
| 2026-05-07 14:21 | 8.77853 | 6.29369 | 26001 ft | 432 kts | 60° |
| 2026-05-07 14:21 | 8.79318 | 6.32010 | 25484 ft | 425 kts | 60° |
| 2026-05-07 14:21 | 8.80741 | 6.34595 | 24959 ft | 419 kts | 62° |
| 2026-05-07 14:21 | 8.81815 | 6.37291 | 24330 ft | 416 kts | 72° |
| 2026-05-07 14:22 | 8.82611 | 6.40095 | 23616 ft | 416 kts | 74° |
| 2026-05-07 14:22 | 8.83360 | 6.42910 | 22853 ft | 416 kts | 74° |
| 2026-05-07 14:22 | 8.84119 | 6.45718 | 22094 ft | 415 kts | 74° |
| 2026-05-07 14:22 | 8.84897 | 6.48519 | 21329 ft | 415 kts | 73° |
| 2026-05-07 14:23 | 8.85687 | 6.51305 | 20615 ft | 414 kts | 73° |
| 2026-05-07 14:23 | 8.86489 | 6.54099 | 19985 ft | 410 kts | 73° |
| 2026-05-07 14:23 | 8.87276 | 6.56823 | 19397 ft | 406 kts | 73° |
| 2026-05-07 14:23 | 8.88069 | 6.59555 | 18811 ft | 402 kts | 73° |
| 2026-05-07 14:24 | 8.88857 | 6.62261 | 18221 ft | 399 kts | 73° |
| 2026-05-07 14:24 | 8.89630 | 6.64916 | 17650 ft | 396 kts | 73° |
| 2026-05-07 14:24 | 8.90414 | 6.67604 | 17074 ft | 393 kts | 74° |
| 2026-05-07 14:24 | 8.91185 | 6.70247 | 16516 ft | 390 kts | 74° |
| 2026-05-07 14:25 | 8.91945 | 6.72853 | 16000 ft | 386 kts | 74° |
| 2026-05-07 14:25 | 8.92699 | 6.75435 | 15497 ft | 382 kts | 75° |
| 2026-05-07 14:25 | 8.93442 | 6.77983 | 15015 ft | 378 kts | 75° |
| 2026-05-07 14:25 | 8.94176 | 6.80507 | 14521 ft | 374 kts | 75° |
| 2026-05-07 14:26 | 8.94902 | 6.83000 | 14036 ft | 369 kts | 75° |
| 2026-05-07 14:26 | 8.95629 | 6.85493 | 13550 ft | 365 kts | 75° |
| 2026-05-07 14:26 | 8.96340 | 6.87936 | 13068 ft | 360 kts | 75° |
| 2026-05-07 14:26 | 8.97034 | 6.90329 | 12579 ft | 355 kts | 75° |
| 2026-05-07 14:27 | 8.97731 | 6.92732 | 12078 ft | 351 kts | 75° |
| 2026-05-07 14:27 | 8.98404 | 6.95057 | 11590 ft | 347 kts | 75° |
| 2026-05-07 14:27 | 8.99077 | 6.97377 | 11094 ft | 342 kts | 74° |
| 2026-05-07 14:27 | 8.99745 | 6.99678 | 10719 ft | 333 kts | 74° |
| 2026-05-07 14:28 | 9.00382 | 7.01871 | 10548 ft | 318 kts | 73° |
| 2026-05-07 14:28 | 9.00995 | 7.03979 | 10385 ft | 304 kts | 73° |
| 2026-05-07 14:28 | 9.01576 | 7.05974 | 10183 ft | 293 kts | 73° |
| 2026-05-07 14:28 | 9.02136 | 7.07908 | 10052 ft | 279 kts | 73° |
| 2026-05-07 14:29 | 9.02672 | 7.09759 | 9898 ft | 268 kts | 73° |
| 2026-05-07 14:29 | 9.03190 | 7.11542 | 9758 ft | 258 kts | 72° |
| 2026-05-07 14:29 | 9.03691 | 7.13271 | 9424 ft | 256 kts | 72° |
| 2026-05-07 14:29 | 9.04194 | 7.15001 | 9083 ft | 254 kts | 72° |
| 2026-05-07 14:30 | 9.04691 | 7.16711 | 8758 ft | 253 kts | 72° |
| 2026-05-07 14:30 | 9.05256 | 7.18387 | 8397 ft | 251 kts | 62° |
| 2026-05-07 14:30 | 9.06248 | 7.19807 | 8043 ft | 251 kts | 45° |
| 2026-05-07 14:30 | 9.07612 | 7.20911 | 7699 ft | 252 kts | 37° |
| 2026-05-07 14:31 | 9.09058 | 7.21933 | 7352 ft | 252 kts | 36° |
| 2026-05-07 14:31 | 9.10509 | 7.22952 | 7011 ft | 253 kts | 36° |
| 2026-05-07 14:31 | 9.11956 | 7.23970 | 6665 ft | 254 kts | 35° |
| 2026-05-07 14:31 | 9.13401 | 7.24990 | 6321 ft | 254 kts | 35° |
| 2026-05-07 14:32 | 9.14867 | 7.26025 | 5974 ft | 255 kts | 34° |
| 2026-05-07 14:32 | 9.16307 | 7.27042 | 5631 ft | 256 kts | 34° |
| 2026-05-07 14:32 | 9.17773 | 7.28076 | 5296 ft | 255 kts | 34° |
| 2026-05-07 14:32 | 9.19224 | 7.29101 | 5049 ft | 251 kts | 34° |
| 2026-05-07 14:33 | 9.20582 | 7.30149 | 5020 ft | 238 kts | 47° |
| 2026-05-07 14:33 | 9.21289 | 7.31598 | 5000 ft | 224 kts | 81° |
| 2026-05-07 14:33 | 9.21157 | 7.33136 | 4820 ft | 222 kts | 110° |
| 2026-05-07 14:33 | 9.20381 | 7.34452 | 4601 ft | 219 kts | 125° |
| 2026-05-07 14:34 | 9.19475 | 7.35681 | 4381 ft | 215 kts | 126° |
| 2026-05-07 14:34 | 9.18514 | 7.36831 | 4165 ft | 212 kts | 145° |
| 2026-05-07 14:34 | 9.17154 | 7.37335 | 3993 ft | 212 kts | 180° |
| 2026-05-07 14:34 | 9.15726 | 7.36988 | 3752 ft | 211 kts | 208° |
| 2026-05-07 14:35 | 9.14500 | 7.36198 | 3660 ft | 209 kts | 217° |
| 2026-05-07 14:35 | 9.13321 | 7.35303 | 3670 ft | 206 kts | 218° |
| 2026-05-07 14:35 | 9.12205 | 7.34467 | 3504 ft | 197 kts | 217° |
| 2026-05-07 14:35 | 9.11093 | 7.33665 | 3220 ft | 193 kts | 216° |
| 2026-05-07 14:36 | 9.10017 | 7.32906 | 2954 ft | 188 kts | 216° |
| 2026-05-07 14:36 | 9.08988 | 7.32184 | 2717 ft | 173 kts | 215° |
| 2026-05-07 14:36 | 9.08028 | 7.31508 | 2474 ft | 160 kts | 215° |
| 2026-05-07 14:36 | 9.07144 | 7.30884 | 2264 ft | 149 kts | 215° |
| 2026-05-07 14:37 | 9.06306 | 7.30293 | 2096 ft | 145 kts | 214° |
| 2026-05-07 14:37 | 9.04664 | 7.29133 | 1750 ft | 143 kts | 214° |
| 2026-05-07 14:37 | 9.03839 | 7.28557 | 1572 ft | 142 kts | 213° |
| 2026-05-07 14:38 | 9.03031 | 7.27975 | 1377 ft | 141 kts | 214° |
| 2026-05-07 14:38 | 9.02234 | 7.27412 | 1207 ft | 137 kts | 213° |
| 2026-05-07 14:38 | 9.01474 | 7.26877 | 1118 ft | 124 kts | 214° |
| 2026-05-07 14:38 | 9.00855 | 7.26439 | 1120 ft | 91 kts | 216° |
| 2026-05-07 14:39 | 9.00410 | 7.26126 | 1101 ft | 55 kts | 220° |
| 2026-05-07 14:39 | 9.00231 | 7.26026 | 1092 ft | 21 kts | 191° |
| 2026-05-07 14:39 | 9.00118 | 7.26031 | 1089 ft | 9 kts | 150° |
| 2026-05-07 14:39 | 9.00099 | 7.26093 | 1089 ft | 10 kts | 66° |
| 2026-05-07 14:40 | 9.00143 | 7.26145 | 1091 ft | 9 kts | 34° |
| 2026-05-07 14:40 | 9.00201 | 7.26185 | 1094 ft | 10 kts | 34° |
| 2026-05-07 14:40 | 9.00268 | 7.26232 | 1098 ft | 13 kts | 36° |
| 2026-05-07 14:40 | 9.00349 | 7.26289 | 1102 ft | 15 kts | 34° |
| 2026-05-07 14:41 | 9.00442 | 7.26355 | 1108 ft | 16 kts | 36° |
| 2026-05-07 14:41 | 9.00532 | 7.26419 | 1115 ft | 13 kts | 35° |
| 2026-05-07 14:41 | 9.00594 | 7.26476 | 1118 ft | 11 kts | 66° |
| 2026-05-07 14:41 | 9.00579 | 7.26547 | 1120 ft | 11 kts | 124° |
| 2026-05-07 14:42 | 9.00521 | 7.26602 | 1121 ft | 12 kts | 146° |
| 2026-05-07 14:42 | 9.00437 | 7.26652 | 1119 ft | 15 kts | 149° |
| 2026-05-07 14:42 | 9.00349 | 7.26706 | 1116 ft | 11 kts | 134° |
| 2026-05-07 14:42 | 9.00343 | 7.26778 | 1118 ft | 10 kts | 63° |
| 2026-05-07 14:43 | 9.00366 | 7.26836 | 1121 ft | 7 kts | 94° |
| 2026-05-07 14:43 | 9.00367 | 7.26886 | 1124 ft | 5 kts | 67° |
| 2026-05-07 14:43 | 9.00382 | 7.26912 | 1126 ft | 2 kts | 60° |
| 2026-05-07 14:43 | 9.00390 | 7.26926 | 1126 ft | 2 kts | 59° |
| 2026-05-07 14:44 | 9.00402 | 7.26946 | 1128 ft | 0 kts | 59° |
| 2026-05-07 14:44 | 9.00402 | 7.26947 | 1128 ft | 0 kts | 59° |